Time,TemperatureF,DewpointF,PressureIn,WindDirection,WindDirectionDegrees,WindSpeedMPH,WindSpeedGustMPH,Humidity,HourlyPrecipIn,Conditions,Clouds,dailyrainin,SoftwareType,DateUTC
2017-07-24 00:05:00,68.9,63.9,29.84,NNW,344,0.0,0.0,84,0.00,,,0.00,Wunderground v.1.15,2017-07-24 05:05:00,
2017-07-24 00:10:00,68.7,64.0,29.84,NNW,344,0.0,0.0,85,0.00,,,0.00,Wunderground v.1.15,2017-07-24 05:10:00,
2017-07-24 00:20:00,68.4,63.7,29.84,NNW,345,0.0,2.0,85,0.00,,,0.00,Wunderground v.1.15,2017-07-24 05:20:00,
2017-07-24 00:30:00,68.2,63.9,29.85,NNW,345,0.0,0.0,86,0.00,,,0.00,Wunderground v.1.15,2017-07-24 05:30:00,
2017-07-24 00:40:00,67.9,63.6,29.84,NNW,345,0.0,3.0,86,0.00,,,0.00,Wunderground v.1.15,2017-07-24 05:40:00,
2017-07-24 00:49:00,67.8,63.8,29.85,NNW,345,0.0,0.0,87,0.00,,,0.00,Wunderground v.1.15,2017-07-24 05:49:00,
2017-07-24 00:55:00,67.8,63.5,29.85,NNW,344,1.0,3.0,86,0.00,,,0.00,Wunderground v.1.15,2017-07-24 05:55:00,
2017-07-24 01:05:00,67.6,63.6,29.84,NNW,344,1.0,4.0,87,0.00,,,0.00,Wunderground v.1.15,2017-07-24 06:05:00,
2017-07-24 01:15:00,67.4,63.4,29.85,NNW,344,0.0,1.0,87,0.00,,,0.00,Wunderground v.1.15,2017-07-24 06:15:00,
2017-07-24 01:25:00,67.2,63.2,29.85,NNW,345,0.0,1.0,87,0.00,,,0.00,Wunderground v.1.15,2017-07-24 06:25:00,
2017-07-24 01:35:00,66.8,63.1,29.85,NNW,345,0.0,0.0,88,0.00,,,0.00,Wunderground v.1.15,2017-07-24 06:35:00,
2017-07-24 01:45:00,66.5,63.2,29.85,NNW,346,0.0,0.0,89,0.00,,,0.00,Wunderground v.1.15,2017-07-24 06:45:00,
2017-07-24 01:50:00,66.3,63.0,29.85,NNW,346,0.0,0.0,89,0.00,,,0.00,Wunderground v.1.15,2017-07-24 06:50:00,
2017-07-24 02:00:00,65.9,62.6,29.86,NNW,346,0.0,0.0,89,0.00,,,0.00,Wunderground v.1.15,2017-07-24 07:00:00,
2017-07-24 02:10:00,65.8,63.1,29.86,NNW,347,0.0,0.0,91,0.00,,,0.00,Wunderground v.1.15,2017-07-24 07:10:00,
2017-07-24 02:20:00,66.1,63.4,29.85,NNW,348,1.0,3.0,91,0.00,,,0.00,Wunderground v.1.15,2017-07-24 07:20:00,
2017-07-24 02:30:00,66.6,64.2,29.85,North,355,1.0,1.0,92,0.00,,,0.00,Wunderground v.1.15,2017-07-24 07:30:00,
2017-07-24 02:35:00,66.8,64.4,29.86,North,355,1.0,3.0,92,0.00,,,0.00,Wunderground v.1.15,2017-07-24 07:35:00,
2017-07-24 02:45:00,67.1,64.7,29.86,North,355,0.0,0.0,92,0.00,,,0.00,Wunderground v.1.15,2017-07-24 07:45:00,
2017-07-24 02:55:00,67.3,64.9,29.86,NE,56,1.0,2.0,92,0.00,,,0.00,Wunderground v.1.15,2017-07-24 07:55:00,
2017-07-24 03:04:00,67.4,65.0,29.86,NE,45,1.0,1.0,92,0.00,,,0.00,Wunderground v.1.15,2017-07-24 08:04:00,
2017-07-24 03:10:00,67.4,65.0,29.86,NE,40,1.0,1.0,92,0.00,,,0.00,Wunderground v.1.15,2017-07-24 08:10:00,
2017-07-24 03:20:00,67.4,65.0,29.86,NE,55,1.0,1.0,92,0.00,,,0.00,Wunderground v.1.15,2017-07-24 08:20:00,
2017-07-24 03:30:00,67.4,65.0,29.87,NE,53,0.0,0.0,92,0.00,,,0.00,Wunderground v.1.15,2017-07-24 08:30:00,
2017-07-24 03:40:00,67.4,65.0,29.87,NE,49,1.0,1.0,92,0.00,,,0.00,Wunderground v.1.15,2017-07-24 08:40:00,
2017-07-24 03:50:00,67.2,64.8,29.88,NNE,22,1.0,4.0,92,0.00,,,0.00,Wunderground v.1.15,2017-07-24 08:50:00,
2017-07-24 03:59:00,66.9,64.5,29.88,NE,46,2.0,2.0,92,0.00,,,0.00,Wunderground v.1.15,2017-07-24 08:59:00,
2017-07-24 04:05:00,66.7,64.3,29.88,NE,46,1.0,2.0,92,0.00,,,0.00,Wunderground v.1.15,2017-07-24 09:05:00,
2017-07-24 04:15:00,66.3,63.9,29.88,NE,49,1.0,1.0,92,0.00,,,0.00,Wunderground v.1.15,2017-07-24 09:15:00,
2017-07-24 04:25:00,66.0,63.6,29.89,ENE,72,1.0,1.0,92,0.00,,,0.00,Wunderground v.1.15,2017-07-24 09:25:00,
2017-07-24 04:35:00,65.7,63.3,29.89,ENE,69,1.0,1.0,92,0.00,,,0.00,Wunderground v.1.15,2017-07-24 09:35:00,
2017-07-24 04:45:00,65.5,63.1,29.89,ENE,69,0.0,0.0,92,0.00,,,0.00,Wunderground v.1.15,2017-07-24 09:45:00,
2017-07-24 04:55:00,65.4,63.3,29.90,ENE,69,0.0,0.0,93,0.00,,,0.00,Wunderground v.1.15,2017-07-24 09:55:00,
2017-07-24 05:00:00,65.3,63.2,29.90,ENE,69,0.0,0.0,93,0.00,,,0.00,Wunderground v.1.15,2017-07-24 10:00:00,
2017-07-24 05:10:00,65.3,63.2,29.90,ENE,69,0.0,0.0,93,0.00,,,0.00,Wunderground v.1.15,2017-07-24 10:10:00,
2017-07-24 05:20:00,65.3,63.5,29.91,ENE,69,0.0,0.0,94,0.00,,,0.00,Wunderground v.1.15,2017-07-24 10:20:00,
2017-07-24 05:30:00,65.5,63.7,29.91,ENE,61,0.0,0.0,94,0.00,,,0.00,Wunderground v.1.15,2017-07-24 10:30:00,
2017-07-24 05:40:00,65.5,63.7,29.92,ENE,61,0.0,0.0,94,0.00,,,0.00,Wunderground v.1.15,2017-07-24 10:40:00,
2017-07-24 05:45:00,65.6,63.8,29.92,ENE,61,0.0,0.0,94,0.00,,,0.00,Wunderground v.1.15,2017-07-24 10:45:00,
2017-07-24 05:55:00,65.7,63.9,29.91,ENE,61,0.0,0.0,94,0.00,,,0.00,Wunderground v.1.15,2017-07-24 10:55:00,
2017-07-24 06:05:00,65.8,64.0,29.92,ENE,61,0.0,0.0,94,0.00,,,0.00,Wunderground v.1.15,2017-07-24 11:05:00,
2017-07-24 06:15:00,65.9,63.8,29.92,ENE,61,0.0,0.0,93,0.00,,,0.00,Wunderground v.1.15,2017-07-24 11:15:00,
2017-07-24 06:25:00,66.0,63.9,29.93,ENE,60,0.0,0.0,93,0.00,,,0.00,Wunderground v.1.15,2017-07-24 11:25:00,
2017-07-24 06:30:00,66.1,64.0,29.93,ENE,60,0.0,0.0,93,0.00,,,0.00,Wunderground v.1.15,2017-07-24 11:30:00,
2017-07-24 06:35:00,66.2,64.1,29.93,ENE,60,0.0,0.0,93,0.00,,,0.00,Wunderground v.1.15,2017-07-24 11:35:00,
2017-07-24 06:40:00,66.3,64.2,29.93,ENE,59,0.0,0.0,93,0.00,,,0.00,Wunderground v.1.15,2017-07-24 11:40:00,
2017-07-24 06:50:00,65.6,62.9,29.94,NE,35,2.0,2.0,91,0.00,,,0.00,Wunderground v.1.15,2017-07-24 11:50:00,
2017-07-24 07:00:00,65.2,62.5,29.94,NNE,23,1.0,2.0,91,0.00,,,0.00,Wunderground v.1.15,2017-07-24 12:00:00,
2017-07-24 07:10:00,65.1,62.4,29.95,NNE,25,1.0,1.0,91,0.00,,,0.00,Wunderground v.1.15,2017-07-24 12:10:00,
2017-07-24 07:15:00,65.1,62.4,29.95,NNE,24,1.0,1.0,91,0.00,,,0.00,Wunderground v.1.15,2017-07-24 12:15:00,
2017-07-24 07:25:00,65.0,62.3,29.95,NNE,25,0.0,1.0,91,0.00,,,0.00,Wunderground v.1.15,2017-07-24 12:25:00,
2017-07-24 07:35:00,65.1,62.1,29.95,NNE,26,0.0,1.0,90,0.00,,,0.00,Wunderground v.1.15,2017-07-24 12:35:00,
2017-07-24 07:45:00,65.2,62.5,29.95,NNE,24,0.0,1.0,91,0.00,,,0.00,Wunderground v.1.15,2017-07-24 12:45:00,
2017-07-24 07:50:00,65.3,62.6,29.95,NNE,27,0.0,0.0,91,0.00,,,0.00,Wunderground v.1.15,2017-07-24 12:50:00,
2017-07-24 08:00:00,65.6,62.9,29.96,NNE,26,1.0,2.0,91,0.00,,,0.00,Wunderground v.1.15,2017-07-24 13:00:00,
2017-07-24 08:10:00,65.8,62.8,29.96,NNE,27,1.0,1.0,90,0.00,,,0.00,Wunderground v.1.15,2017-07-24 13:10:00,